Time;durP1;ratioP1;P1;durP2;ratioP2;P2;SDS_P1;SDS_P2;PMS_P1;PMS_P2;Temp;Humidity;BMP_temperature;BMP_pressure;BME280_temperature;BME280_humidity;BME280_pressure;Samples;Min_cycle;Max_cycle;Signal;HPM_P1;HPM_P2
2023/08/18 00:04:35;;;;;;;;;;;;;;;17.87;100.00;101735.34;10625215;28;19930;-70
2023/08/18 00:09:37;;;;;;;;;;;;;;;18.05;100.00;101739.28;10623250;28;19923;-70
2023/08/18 00:14:40;;;;;;;;;;;;;;;17.69;100.00;101738.38;10626132;27;19931;-70
2023/08/18 00:19:42;;;;;;;;;;;;;;;18.01;100.00;101738.69;10633788;27;19927;-70
2023/08/18 00:24:44;;;;;;;;;;;;;;;17.76;100.00;101734.31;10633508;27;20015;-70
2023/08/18 00:29:46;;;;;;;;;;;;;;;17.76;100.00;101738.75;10633269;27;19930;-70
2023/08/18 00:34:49;;;;;;;;;;;;;;;17.88;100.00;101729.94;10631967;27;19930;-70
2023/08/18 00:39:51;;;;;;;;;;;;;;;17.74;100.00;101738.88;10632924;27;19924;-70
2023/08/18 00:44:53;;;;;;;;;;;;;;;17.96;100.00;101735.53;10613857;27;19955;-70
2023/08/18 00:49:55;;;;;;;;;;;;;;;17.89;100.00;101741.41;10632441;27;19930;-70
2023/08/18 00:54:58;;;;;;;;;;;;;;;17.85;100.00;101740.72;10630478;27;20479;-70
2023/08/18 01:00:00;;;;;;;;;;;;;;;17.90;100.00;101733.31;10630367;27;20366;-70
2023/08/18 01:05:02;;;;;;;;;;;;;;;17.77;100.00;101727.19;10630176;27;19950;-70
2023/08/18 01:10:05;;;;;;;;;;;;;;;17.77;100.00;101722.75;10631041;27;19927;-70
2023/08/18 01:15:22;;;;;;;;;;;;;;;17.75;100.00;101719.38;10629471;27;19924;-70
2023/08/18 01:20:24;;;;;;;;;;;;;;;17.50;100.00;101722.97;10630170;27;19924;-70
2023/08/18 01:25:26;;;;;;;;;;;;;;;17.52;100.00;101723.69;10629805;27;19923;-70
2023/08/18 01:30:46;;;;;;;;;;;;;;;17.90;100.00;101719.22;10565234;22;20378;-74
2023/08/18 01:35:49;;;;;;;;;;;;;;;17.53;100.00;101716.59;10544881;28;19924;-74
2023/08/18 01:40:51;;;;;;;;;;;;;;;17.71;100.00;101701.19;10544094;28;20367;-74
2023/08/18 01:45:53;;;;;;;;;;;;;;;17.81;100.00;101713.63;10544446;28;19962;-74
2023/08/18 01:50:56;;;;;;;;;;;;;;;17.76;100.00;101706.97;10545313;28;19931;-74
2023/08/18 01:56:01;;;;;;;;;;;;;;;17.73;100.00;101704.56;10544636;28;19930;-74
2023/08/18 02:01:03;;;;;;;;;;;;;;;17.55;100.00;101693.50;10543254;28;20390;-73
2023/08/18 02:06:06;;;;;;;;;;;;;;;17.52;100.00;101688.44;10544158;28;20294;-74
2023/08/18 02:11:08;;;;;;;;;;;;;;;17.64;100.00;101687.53;10544512;28;19930;-74
2023/08/18 02:16:10;;;;;;;;;;;;;;;17.50;100.00;101685.03;10544386;28;19930;-74
2023/08/18 02:21:14;;;;;;;;;;;;;;;17.47;100.00;101675.53;10543559;28;19974;-74
2023/08/18 02:26:16;;;;;;;;;;;;;;;17.82;100.00;101662.34;10544468;28;19931;-74
2023/08/18 02:31:18;;;;;;;;;;;;;;;17.56;100.00;101669.56;10584486;28;19946;-74
2023/08/18 02:36:21;;;;;;;;;;;;;;;17.73;100.00;101660.38;10567503;28;19923;-75
2023/08/18 02:41:26;;;;;;;;;;;;;;;17.13;100.00;101664.75;10584947;28;19927;-74
2023/08/18 02:46:28;;;;;;;;;;;;;;;17.44;100.00;101663.34;10585309;28;19923;-74
2023/08/18 02:51:30;;;;;;;;;;;;;;;17.56;100.00;101656.31;10566376;28;20362;-74
2023/08/18 02:56:32;;;;;;;;;;;;;;;17.50;100.00;101667.38;10584307;28;19930;-74
2023/08/18 03:01:35;;;;;;;;;;;;;;;17.68;100.00;101673.09;10566038;28;19985;-74
2023/08/18 03:06:37;;;;;;;;;;;;;;;17.31;100.00;101675.78;10566520;28;19924;-74
2023/08/18 03:11:39;;;;;;;;;;;;;;;17.53;100.00;101668.94;10583702;28;20370;-75
2023/08/18 03:16:42;;;;;;;;;;;;;;;17.51;100.00;101671.69;10565436;28;19923;-74
2023/08/18 03:21:44;;;;;;;;;;;;;;;17.45;100.00;101656.28;10584084;28;20086;-74
2023/08/18 03:26:47;;;;;;;;;;;;;;;17.53;100.00;101666.28;10565024;28;19982;-74
2023/08/18 03:31:49;;;;;;;;;;;;;;;17.68;100.00;101661.66;10565630;28;19924;-74
2023/08/18 03:36:51;;;;;;;;;;;;;;;17.36;100.00;101659.56;10583591;28;19924;-74
2023/08/18 03:41:54;;;;;;;;;;;;;;;17.65;100.00;101665.38;10583319;28;20433;-74
2023/08/18 03:46:56;;;;;;;;;;;;;;;17.59;100.00;101665.84;10583225;28;19924;-74
2023/08/18 03:51:58;;;;;;;;;;;;;;;17.42;100.00;101662.63;10582085;28;19923;-74
2023/08/18 03:57:00;;;;;;;;;;;;;;;17.54;100.00;101654.75;10583002;28;19997;-75
2023/08/18 04:02:03;;;;;;;;;;;;;;;17.55;100.00;101643.19;10582881;28;19928;-75
2023/08/18 04:07:05;;;;;;;;;;;;;;;17.51;100.00;101652.31;10564063;28;19923;-74
2023/08/18 04:12:07;;;;;;;;;;;;;;;17.55;100.00;101649.34;10563877;28;20281;-74
2023/08/18 04:17:09;;;;;;;;;;;;;;;17.73;100.00;101644.47;10581909;28;20302;-74
2023/08/18 04:22:12;;;;;;;;;;;;;;;17.68;100.00;101633.38;10582467;28;20011;-74
2023/08/18 04:27:14;;;;;;;;;;;;;;;17.51;100.00;101636.44;10582179;28;19967;-75
2023/08/18 04:32:16;;;;;;;;;;;;;;;17.51;100.00;101633.78;10582196;28;19924;-74
2023/08/18 04:37:19;;;;;;;;;;;;;;;17.56;100.00;101640.44;10582129;28;19924;-74
2023/08/18 04:42:21;;;;;;;;;;;;;;;17.60;100.00;101636.63;10582098;28;19931;-75
2023/08/18 04:47:23;;;;;;;;;;;;;;;17.61;100.00;101648.88;10582011;28;19924;-75
2023/08/18 04:52:25;;;;;;;;;;;;;;;17.45;100.00;101659.75;10581773;28;19923;-74
2023/08/18 04:57:28;;;;;;;;;;;;;;;17.72;100.00;101652.53;10581776;28;19938;-74
2023/08/18 05:02:30;;;;;;;;;;;;;;;17.46;100.00;101647.38;10585796;28;20003;-74
2023/08/18 05:07:33;;;;;;;;;;;;;;;17.62;100.00;101639.16;10588878;28;19924;-75
2023/08/18 05:12:35;;;;;;;;;;;;;;;17.62;100.00;101637.34;10589148;28;19924;-75
2023/08/18 05:17:38;;;;;;;;;;;;;;;17.60;100.00;101633.09;10588378;28;20285;-74
2023/08/18 05:22:40;;;;;;;;;;;;;;;17.27;100.00;101631.97;10588131;28;19989;-74
2023/08/18 05:27:43;;;;;;;;;;;;;;;17.21;100.00;101627.97;10569873;28;20415;-75
2023/08/18 05:32:45;;;;;;;;;;;;;;;17.20;100.00;101644.81;10553432;28;19923;-74
2023/08/18 05:37:48;;;;;;;;;;;;;;;17.62;100.00;101644.44;10587513;28;19954;-74
2023/08/18 05:42:50;;;;;;;;;;;;;;;17.76;100.00;101631.00;10587989;28;19966;-75
2023/08/18 05:47:52;;;;;;;;;;;;;;;17.85;100.00;101628.63;10569685;28;19931;-74
2023/08/18 05:52:55;;;;;;;;;;;;;;;17.94;100.00;101636.78;10586896;28;20289;-75
2023/08/18 05:58:01;;;;;;;;;;;;;;;17.64;100.00;101637.22;10569279;28;19924;-74
2023/08/18 06:03:03;;;;;;;;;;;;;;;17.77;100.00;101634.50;10551825;28;20368;-75
2023/08/18 06:08:05;;;;;;;;;;;;;;;17.45;100.00;101643.88;10586346;28;20010;-74
2023/08/18 06:13:08;;;;;;;;;;;;;;;17.90;100.00;101637.09;10566961;28;20260;-74
2023/08/18 06:18:10;;;;;;;;;;;;;;;17.82;100.00;101629.72;10585922;28;19924;-74
2023/08/18 06:23:12;;;;;;;;;;;;;;;17.79;100.00;101627.31;10585756;28;20367;-74
2023/08/18 06:28:14;;;;;;;;;;;;;;;17.95;100.00;101619.06;10551073;28;19928;-74
2023/08/18 06:33:17;;;;;;;;;;;;;;;17.97;100.00;101604.75;10567799;28;19931;-75
2023/08/18 06:38:19;;;;;;;;;;;;;;;18.25;100.00;101605.28;10585707;28;19930;-75
2023/08/18 06:43:21;;;;;;;;;;;;;;;18.34;100.00;101603.72;10566889;28;19924;-75
2023/08/18 06:48:23;;;;;;;;;;;;;;;18.31;100.00;101611.94;10567272;28;19924;-75
2023/08/18 06:53:27;;;;;;;;;;;;;;;18.20;100.00;101602.97;10549487;28;20278;-74
2023/08/18 06:58:30;;;;;;;;;;;;;;;18.53;100.00;101603.97;10566466;28;20398;-75
2023/08/18 07:03:32;;;;;;;;;;;;;;;18.29;100.00;101612.03;10566241;28;19924;-75
2023/08/18 07:08:35;;;;;;;;;;;;;;;17.99;100.00;101617.88;10583966;28;19927;-74
2023/08/18 07:13:37;;;;;;;;;;;;;;;17.85;100.00;101620.69;10583697;28;19924;-75
2023/08/18 07:18:39;;;;;;;;;;;;;;;18.17;100.00;101618.25;10583624;28;20285;-75
2023/08/18 07:23:42;;;;;;;;;;;;;;;18.09;100.00;101618.88;10583190;28;19924;-74
2023/08/18 07:28:44;;;;;;;;;;;;;;;18.40;100.00;101620.97;10583512;28;19999;-74
2023/08/18 07:33:46;;;;;;;;;;;;;;;18.63;100.00;101613.88;10582984;28;20378;-75
2023/08/18 07:38:48;;;;;;;;;;;;;;;18.47;100.00;101617.69;10548147;28;20375;-74
2023/08/18 07:43:51;;;;;;;;;;;;;;;18.50;100.00;101613.97;10583551;28;19930;-75
2023/08/18 07:48:53;;;;;;;;;;;;;;;18.35;100.00;101626.63;10565173;28;19930;-75
2023/08/18 07:53:55;;;;;;;;;;;;;;;18.60;100.00;101622.91;10582442;28;20389;-74
2023/08/18 07:58:57;;;;;;;;;;;;;;;18.87;100.00;101627.88;10581419;28;20294;-74
2023/08/18 08:04:00;;;;;;;;;;;;;;;19.01;100.00;101626.75;10582293;28;20022;-74
2023/08/18 08:09:03;;;;;;;;;;;;;;;18.94;100.00;101629.06;10582817;28;19969;-74
2023/08/18 08:14:06;;;;;;;;;;;;;;;18.68;100.00;101636.41;10582683;28;19928;-74
2023/08/18 08:19:10;;;;;;;;;;;;;;;18.61;100.00;101635.22;10582595;28;19924;-74
2023/08/18 08:24:12;;;;;;;;;;;;;;;18.71;100.00;101632.66;10582345;28;20377;-74
2023/08/18 08:29:14;;;;;;;;;;;;;;;19.15;100.00;101630.09;10582135;28;19923;-75
2023/08/18 08:34:17;;;;;;;;;;;;;;;19.02;100.00;101638.22;10582256;28;19924;-75
2023/08/18 08:39:24;;;;;;;;;;;;;;;18.67;100.00;101631.22;10571926;28;19923;-74
2023/08/18 08:44:26;;;;;;;;;;;;;;;19.00;100.00;101632.22;10590462;28;19924;-74
2023/08/18 08:49:29;;;;;;;;;;;;;;;19.56;100.00;101632.06;10589652;28;19924;-73
2023/08/18 08:54:31;;;;;;;;;;;;;;;19.43;100.00;101624.28;10571982;28;19930;-74
2023/08/18 08:59:33;;;;;;;;;;;;;;;19.81;100.00;101622.91;10571796;28;19930;-74
2023/08/18 09:04:35;;;;;;;;;;;;;;;19.39;100.00;101622.81;10571765;28;19928;-74
2023/08/18 09:09:38;;;;;;;;;;;;;;;19.63;100.00;101621.75;10588892;28;19924;-75
2023/08/18 09:14:40;;;;;;;;;;;;;;;19.45;100.00;101621.47;10589150;28;19931;-75
2023/08/18 09:19:43;;;;;;;;;;;;;;;19.41;100.00;101635.97;10571049;28;19931;-74
2023/08/18 09:24:46;;;;;;;;;;;;;;;19.62;100.00;101638.69;10588166;28;20378;-75
2023/08/18 09:29:48;;;;;;;;;;;;;;;19.83;100.00;101628.09;10588177;28;20365;-74
2023/08/18 09:34:51;;;;;;;;;;;;;;;20.18;100.00;101618.97;10588385;28;19924;-74
2023/08/18 09:39:58;;;;;;;;;;;;;;;20.32;100.00;101615.97;10570314;28;19923;-74
2023/08/18 09:45:00;;;;;;;;;;;;;;;20.00;100.00;101618.72;10588288;28;19946;-74
2023/08/18 09:50:02;;;;;;;;;;;;;;;19.85;100.00;101620.84;10588111;28;19923;-74
2023/08/18 09:55:10;;;;;;;;;;;;;;;20.18;100.00;101619.81;10569707;28;19923;-75
2023/08/18 10:00:12;;;;;;;;;;;;;;;19.95;100.00;101610.28;10587453;28;19923;-69
2023/08/18 10:05:14;;;;;;;;;;;;;;;21.08;100.00;101604.09;10579683;28;19959;-69
2023/08/18 10:10:17;;;;;;;;;;;;;;;20.32;100.00;101602.66;10543744;28;19982;-69
2023/08/18 10:15:19;;;;;;;;;;;;;;;21.14;100.00;101588.41;10525898;28;19935;-69
2023/08/18 10:20:21;;;;;;;;;;;;;;;20.99;100.00;101591.63;10543788;28;19930;-69
2023/08/18 10:25:25;;;;;;;;;;;;;;;20.99;100.00;101589.78;10525415;28;20306;-69
2023/08/18 10:30:27;;;;;;;;;;;;;;;20.80;100.00;101587.94;10525527;28;19924;-69
2023/08/18 10:35:30;;;;;;;;;;;;;;;22.68;96.52;101575.13;10542956;28;19924;-69
2023/08/18 10:40:33;;;;;;;;;;;;;;;23.40;88.29;101573.41;10540609;28;20034;-69
2023/08/18 10:45:36;;;;;;;;;;;;;;;22.17;86.64;101570.09;10584883;28;19950;-69
2023/08/18 10:50:39;;;;;;;;;;;;;;;22.41;93.63;101572.31;10550514;28;20015;-69
2023/08/18 10:55:43;;;;;;;;;;;;;;;23.97;88.06;101564.19;10567043;28;19931;-69
2023/08/18 11:00:45;;;;;;;;;;;;;;;22.61;88.91;101554.38;10566539;28;19970;-69
2023/08/18 11:05:47;;;;;;;;;;;;;;;23.61;85.95;101554.38;10584928;28;19931;-69
2023/08/18 11:10:50;;;;;;;;;;;;;;;23.87;84.55;101545.56;10584002;28;19930;-69
2023/08/18 11:15:52;;;;;;;;;;;;;;;23.07;87.22;101537.56;10583636;28;19930;-69
2023/08/18 11:20:54;;;;;;;;;;;;;;;24.15;88.36;101534.69;10584151;28;19924;-70
2023/08/18 11:25:57;;;;;;;;;;;;;;;24.67;79.37;101526.56;10565945;28;19923;-70
2023/08/18 11:31:04;;;;;;;;;;;;;;;24.68;79.97;101514.88;10548218;28;19924;-70
2023/08/18 11:36:09;;;;;;;;;;;;;;;24.75;79.09;101509.69;10583618;28;19923;-69
2023/08/18 11:41:11;;;;;;;;;;;;;;;24.38;78.45;101503.69;10583526;28;19924;-69
2023/08/18 11:46:13;;;;;;;;;;;;;;;25.31;80.22;101501.91;10565228;28;19934;-69
2023/08/18 11:51:17;;;;;;;;;;;;;;;25.68;73.09;101497.84;10565066;28;19931;-69
2023/08/18 11:56:20;;;;;;;;;;;;;;;25.59;75.58;101494.34;10582424;28;19970;-69
2023/08/18 12:01:22;;;;;;;;;;;;;;;25.64;74.44;101483.06;10564902;28;19924;-69
2023/08/18 12:06:24;;;;;;;;;;;;;;;27.55;68.22;101471.94;10582807;28;19955;-69
2023/08/18 12:11:27;;;;;;;;;;;;;;;26.56;71.81;101469.16;10585419;28;19928;-70
2023/08/18 12:16:29;;;;;;;;;;;;;;;28.56;66.11;101450.72;10572766;28;19931;-70
2023/08/18 12:21:32;;;;;;;;;;;;;;;28.50;65.18;101443.38;10590888;28;19974;-70
2023/08/18 12:26:34;;;;;;;;;;;;;;;27.97;65.52;101444.44;10572402;28;19931;-70
2023/08/18 12:31:36;;;;;;;;;;;;;;;28.24;68.25;101436.66;10572108;28;19934;-70
2023/08/18 12:36:38;;;;;;;;;;;;;;;27.08;68.45;101438.09;10590126;28;20273;-70
2023/08/18 12:41:41;;;;;;;;;;;;;;;29.27;63.14;101429.19;10590607;28;19924;-70
2023/08/18 12:46:43;;;;;;;;;;;;;;;27.68;69.04;101447.09;10590401;28;19924;-70
2023/08/18 12:51:45;;;;;;;;;;;;;;;29.27;64.12;101434.59;10572020;28;20015;-70
2023/08/18 12:56:47;;;;;;;;;;;;;;;28.24;64.86;101433.13;10589973;28;19930;-70
2023/08/18 13:01:50;;;;;;;;;;;;;;;29.82;64.16;101436.59;10589137;28;20260;-70
2023/08/18 13:06:52;;;;;;;;;;;;;;;29.79;62.95;101436.97;10589559;28;19924;-70
2023/08/18 13:11:57;;;;;;;;;;;;;;;29.09;63.01;101436.91;10571803;28;19923;-68
2023/08/18 13:17:00;;;;;;;;;;;;;;;29.48;65.85;101427.44;10571102;28;19930;-70
2023/08/18 13:22:05;;;;;;;;;;;;;;;30.60;62.49;101424.59;10589148;28;19969;-70
2023/08/18 13:27:08;;;;;;;;;;;;;;;29.91;64.76;101405.72;10588545;28;19924;-70
2023/08/18 13:32:10;;;;;;;;;;;;;;;29.98;63.87;101411.13;10587933;28;19923;-70
2023/08/18 13:37:12;;;;;;;;;;;;;;;28.74;65.35;101400.94;10588343;28;19924;-70
2023/08/18 13:42:17;;;;;;;;;;;;;;;29.20;64.30;101409.44;10607281;22;19930;-68
2023/08/18 13:47:20;;;;;;;;;;;;;;;28.70;67.66;101401.34;10629586;27;19923;-68
2023/08/18 13:52:22;;;;;;;;;;;;;;;29.42;65.03;101399.41;10630435;27;19927;-70
2023/08/18 13:57:24;;;;;;;;;;;;;;;30.00;63.01;101396.38;10629655;27;20263;-70
2023/08/18 14:02:26;;;;;;;;;;;;;;;29.74;63.00;101398.94;10630071;27;19923;-70
2023/08/18 14:07:29;;;;;;;;;;;;;;;29.81;65.61;101392.56;10628638;27;19930;-70
2023/08/18 14:12:31;;;;;;;;;;;;;;;29.48;60.18;101386.16;10629589;27;19938;-70
2023/08/18 14:17:35;;;;;;;;;;;;;;;30.19;63.27;101385.84;10627682;27;19947;-70
2023/08/18 14:22:37;;;;;;;;;;;;;;;31.80;57.62;101386.63;10628002;27;19923;-70
2023/08/18 14:27:40;;;;;;;;;;;;;;;30.86;61.07;101381.38;10627256;27;19930;-70
2023/08/18 14:32:42;;;;;;;;;;;;;;;31.67;60.05;101376.66;10628075;27;19928;-70
2023/08/18 14:37:44;;;;;;;;;;;;;;;33.04;57.91;101370.78;10627750;27;20305;-70
2023/08/18 14:42:47;;;;;;;;;;;;;;;30.41;62.88;101375.72;10628069;27;19924;-70
2023/08/18 14:47:49;;;;;;;;;;;;;;;30.94;60.50;101366.84;10628198;27;19930;-70
2023/08/18 14:52:51;;;;;;;;;;;;;;;32.47;58.78;101359.16;10627272;27;20412;-70
2023/08/18 14:57:53;;;;;;;;;;;;;;;30.66;61.35;101367.03;10627824;27;19930;-70
2023/08/18 15:02:57;;;;;;;;;;;;;;;29.68;64.43;101349.31;10627567;27;19929;-70
2023/08/18 15:07:59;;;;;;;;;;;;;;;29.80;62.58;101346.91;10626685;27;20270;-70
2023/08/18 15:13:01;;;;;;;;;;;;;;;31.89;60.73;101343.88;10627082;27;19929;-70
2023/08/18 15:18:04;;;;;;;;;;;;;;;31.74;59.61;101331.47;10626996;27;20010;-70
2023/08/18 15:23:06;;;;;;;;;;;;;;;33.04;57.00;101329.28;10626712;27;19930;-69
2023/08/18 15:28:08;;;;;;;;;;;;;;;33.07;57.96;101331.53;10627241;27;19930;-69
2023/08/18 15:33:11;;;;;;;;;;;;;;;31.72;60.12;101332.72;10625786;27;19923;-70
2023/08/18 15:38:15;;;;;;;;;;;;;;;31.04;63.33;101331.28;10624574;27;20430;-70
2023/08/18 15:43:17;;;;;;;;;;;;;;;31.02;63.09;101317.97;10625838;27;19924;-70
2023/08/18 15:48:19;;;;;;;;;;;;;;;30.87;63.33;101315.47;10625265;27;19930;-70
2023/08/18 15:53:23;;;;;;;;;;;;;;;31.52;61.90;101308.47;10625184;27;20293;-70
2023/08/18 15:58:27;;;;;;;;;;;;;;;30.03;65.03;101306.06;10625717;27;19949;-70
2023/08/18 16:03:30;;;;;;;;;;;;;;;29.74;67.57;101302.66;10625592;27;19923;-70
2023/08/18 16:08:32;;;;;;;;;;;;;;;30.18;65.46;101301.31;10624381;27;19972;-70
2023/08/18 16:13:35;;;;;;;;;;;;;;;30.25;64.30;101308.59;10624676;28;20353;-70
2023/08/18 16:18:37;;;;;;;;;;;;;;;30.16;64.88;101292.59;10625318;27;19930;-70
2023/08/18 16:23:40;;;;;;;;;;;;;;;29.04;67.23;101307.28;10625250;28;19930;-70
2023/08/18 16:28:42;;;;;;;;;;;;;;;29.57;67.08;101310.28;10624477;28;19928;-70
2023/08/18 16:33:45;;;;;;;;;;;;;;;28.90;69.51;101304.50;10624371;28;19924;-70
2023/08/18 16:38:47;;;;;;;;;;;;;;;28.19;73.18;101299.09;10624825;27;19924;-70
2023/08/18 16:43:49;;;;;;;;;;;;;;;27.22;78.29;101298.34;10624117;28;20014;-70
2023/08/18 16:48:51;;;;;;;;;;;;;;;27.13;82.33;101294.09;10624719;28;19929;-70
2023/08/18 16:53:54;;;;;;;;;;;;;;;27.91;78.60;101296.34;10623921;28;20362;-70
2023/08/18 16:58:56;;;;;;;;;;;;;;;27.37;82.85;101301.06;10629476;27;19997;-70
2023/08/18 17:03:58;;;;;;;;;;;;;;;27.22;85.14;101294.84;10631781;27;20396;-70
2023/08/18 17:09:00;;;;;;;;;;;;;;;26.95;86.75;101288.22;10631661;27;19930;-70
2023/08/18 17:14:03;;;;;;;;;;;;;;;26.97;86.72;101286.22;10632015;27;19927;-70
2023/08/18 17:19:05;;;;;;;;;;;;;;;26.64;90.43;101282.00;10631096;27;19923;-70
2023/08/18 17:24:07;;;;;;;;;;;;;;;25.96;96.91;101286.38;10631603;27;19924;-70
2023/08/18 17:29:10;;;;;;;;;;;;;;;26.48;92.33;101284.81;10616613;27;19962;-70
2023/08/18 17:34:12;;;;;;;;;;;;;;;26.38;93.31;101281.53;10622165;27;19992;-70
2023/08/18 17:39:14;;;;;;;;;;;;;;;25.76;99.79;101296.69;10629893;27;19958;-70
2023/08/18 17:44:17;;;;;;;;;;;;;;;25.86;98.75;101289.25;10630314;27;19928;-70
2023/08/18 17:49:19;;;;;;;;;;;;;;;25.95;97.34;101287.38;10612506;27;19935;-70
2023/08/18 17:54:21;;;;;;;;;;;;;;;25.69;99.98;101293.88;10629233;27;19930;-70
2023/08/18 17:59:23;;;;;;;;;;;;;;;25.67;100.00;101292.38;10629621;27;20296;-70
2023/08/18 18:04:26;;;;;;;;;;;;;;;25.32;100.00;101298.06;10630044;27;19930;-70
2023/08/18 18:09:28;;;;;;;;;;;;;;;25.36;100.00;101294.00;10627977;27;19924;-70
2023/08/18 18:14:30;;;;;;;;;;;;;;;25.16;100.00;101287.34;10630498;27;20002;-70
2023/08/18 18:19:32;;;;;;;;;;;;;;;25.19;100.00;101287.03;10627668;27;20369;-70
2023/08/18 18:24:35;;;;;;;;;;;;;;;25.08;100.00;101273.97;10628602;27;20347;-70
2023/08/18 18:29:40;;;;;;;;;;;;;;;24.70;100.00;101276.44;10628378;27;20289;-70
2023/08/18 18:34:43;;;;;;;;;;;;;;;25.02;100.00;101280.88;10627613;27;20002;-70
2023/08/18 18:39:45;;;;;;;;;;;;;;;24.36;100.00;101277.41;10628631;27;19930;-70
2023/08/18 18:44:47;;;;;;;;;;;;;;;24.17;100.00;101266.00;10627649;27;19930;-70
2023/08/18 18:49:49;;;;;;;;;;;;;;;24.17;100.00;101258.00;10626400;27;20389;-70
2023/08/18 18:54:52;;;;;;;;;;;;;;;24.26;100.00;101262.34;10626693;27;19923;-70
2023/08/18 18:59:54;;;;;;;;;;;;;;;24.06;100.00;101267.19;10627786;27;19924;-70
2023/08/18 19:04:56;;;;;;;;;;;;;;;23.85;100.00;101275.66;10626398;27;19923;-70
2023/08/18 19:09:59;;;;;;;;;;;;;;;23.71;100.00;101286.97;10626745;27;19923;-70
2023/08/18 19:15:01;;;;;;;;;;;;;;;23.46;100.00;101286.88;10625898;27;19924;-70
2023/08/18 19:20:05;;;;;;;;;;;;;;;23.44;100.00;101293.38;10625389;27;19923;-70
2023/08/18 19:25:07;;;;;;;;;;;;;;;23.41;100.00;101283.84;10625396;27;20386;-70
2023/08/18 19:30:10;;;;;;;;;;;;;;;23.37;100.00;101293.19;10626040;27;19923;-70
2023/08/18 19:35:12;;;;;;;;;;;;;;;23.20;100.00;101281.59;10624673;27;20289;-70
2023/08/18 19:40:17;;;;;;;;;;;;;;;23.16;100.00;101285.56;10626981;27;19923;-70
2023/08/18 19:45:19;;;;;;;;;;;;;;;23.03;100.00;101285.94;10624477;27;20014;-70
2023/08/18 19:50:22;;;;;;;;;;;;;;;22.94;100.00;101285.06;10626019;27;20022;-70
2023/08/18 19:55:24;;;;;;;;;;;;;;;22.95;100.00;101284.09;10624611;27;19934;-70
2023/08/18 20:00:26;;;;;;;;;;;;;;;22.76;100.00;101285.13;10623858;27;19923;-70
2023/08/18 20:05:28;;;;;;;;;;;;;;;22.82;100.00;101289.84;10625660;27;19930;-70
2023/08/18 20:10:31;;;;;;;;;;;;;;;22.65;100.00;101293.38;10625533;27;19930;-70
2023/08/18 20:15:34;;;;;;;;;;;;;;;22.61;100.00;101297.34;10624274;28;19959;-70
2023/08/18 20:20:37;;;;;;;;;;;;;;;22.57;100.00;101267.47;10624162;28;19929;-70
2023/08/18 20:25:39;;;;;;;;;;;;;;;22.62;100.00;101272.34;10624111;28;19956;-70
2023/08/18 20:30:42;;;;;;;;;;;;;;;22.52;100.00;101272.44;10624609;27;19923;-69
2023/08/18 20:35:45;;;;;;;;;;;;;;;22.52;100.00;101277.78;10615090;27;19976;-70
2023/08/18 20:40:47;;;;;;;;;;;;;;;22.41;100.00;101276.19;10632253;27;19924;-69
2023/08/18 20:45:49;;;;;;;;;;;;;;;22.51;100.00;101278.78;10632664;27;19923;-70
2023/08/18 20:50:51;;;;;;;;;;;;;;;22.33;100.00;101277.97;10632975;27;19923;-69
2023/08/18 20:55:54;;;;;;;;;;;;;;;22.34;100.00;101282.28;10632152;27;19928;-69
2023/08/18 21:00:56;;;;;;;;;;;;;;;22.25;100.00;101284.84;10631347;27;19923;-69
2023/08/18 21:05:58;;;;;;;;;;;;;;;22.27;100.00;101274.88;10631793;27;19924;-69
2023/08/18 21:11:00;;;;;;;;;;;;;;;22.34;100.00;101276.94;10631626;27;20273;-69
2023/08/18 21:16:03;;;;;;;;;;;;;;;22.35;100.00;101271.47;10631290;27;20368;-69
2023/08/18 21:21:05;;;;;;;;;;;;;;;22.32;100.00;101274.44;10631195;27;20289;-69
2023/08/18 21:26:08;;;;;;;;;;;;;;;22.25;100.00;101278.69;10631662;27;19924;-69
2023/08/18 21:31:10;;;;;;;;;;;;;;;22.21;100.00;101274.66;10630206;27;19976;-69
2023/08/18 21:36:13;;;;;;;;;;;;;;;22.21;100.00;101272.81;10631123;27;19934;-69
2023/08/18 21:41:16;;;;;;;;;;;;;;;22.34;100.00;101266.28;10631007;27;19923;-69
2023/08/18 21:46:18;;;;;;;;;;;;;;;22.24;100.00;101258.31;10628765;27;19923;-69
2023/08/18 21:51:21;;;;;;;;;;;;;;;22.30;100.00;101262.25;10630637;27;19930;-69
2023/08/18 21:56:24;;;;;;;;;;;;;;;22.33;100.00;101259.28;10630390;27;19923;-69
2023/08/18 22:01:26;;;;;;;;;;;;;;;22.25;100.00;101246.69;10630291;27;19923;-69
2023/08/18 22:06:28;;;;;;;;;;;;;;;22.31;100.00;101258.56;10630142;27;19923;-70
2023/08/18 22:11:31;;;;;;;;;;;;;;;22.31;100.00;101253.25;10629922;27;19932;-69
2023/08/18 22:16:33;;;;;;;;;;;;;;;22.41;100.00;101254.03;10628972;27;20022;-70
2023/08/18 22:21:35;;;;;;;;;;;;;;;22.34;100.00;101237.78;10628783;27;19930;-70
2023/08/18 22:26:37;;;;;;;;;;;;;;;22.40;100.00;101231.81;10628609;27;19924;-69
2023/08/18 22:31:40;;;;;;;;;;;;;;;22.33;100.00;101235.28;10629002;27;19924;-69
2023/08/18 22:36:42;;;;;;;;;;;;;;;22.25;100.00;101236.00;10628122;27;20316;-69
2023/08/18 22:41:44;;;;;;;;;;;;;;;22.26;100.00;101229.69;10628609;27;19927;-69
2023/08/18 22:46:49;;;;;;;;;;;;;;;22.08;100.00;101243.03;10627750;27;19923;-70
2023/08/18 22:51:51;;;;;;;;;;;;;;;22.24;100.00;101224.50;10626368;27;19924;-69
2023/08/18 22:56:54;;;;;;;;;;;;;;;22.27;100.00;101215.34;10627169;27;19937;-69
2023/08/18 23:01:56;;;;;;;;;;;;;;;22.40;100.00;101215.00;10625955;27;20274;-69
2023/08/18 23:06:58;;;;;;;;;;;;;;;22.42;100.00;101208.50;10626415;27;20011;-69
2023/08/18 23:12:00;;;;;;;;;;;;;;;22.33;100.00;101203.28;10627391;27;19924;-70
2023/08/18 23:17:03;;;;;;;;;;;;;;;22.22;100.00;101217.66;10608318;27;20281;-70
2023/08/18 23:22:05;;;;;;;;;;;;;;;22.18;100.00;101216.28;10627002;27;19958;-70
2023/08/18 23:27:07;;;;;;;;;;;;;;;22.18;100.00;101202.97;10626736;27;19923;-70
2023/08/18 23:32:09;;;;;;;;;;;;;;;22.10;100.00;101200.22;10626590;27;19923;-70
2023/08/18 23:37:12;;;;;;;;;;;;;;;22.00;100.00;101195.78;10626492;27;19923;-70
2023/08/18 23:42:14;;;;;;;;;;;;;;;22.13;100.00;101192.75;10626218;27;19931;-70
2023/08/18 23:47:17;;;;;;;;;;;;;;;21.99;100.00;101203.94;10625285;27;20380;-70
2023/08/18 23:52:19;;;;;;;;;;;;;;;21.93;100.00;101193.91;10626039;27;19930;-70
2023/08/18 23:57:21;;;;;;;;;;;;;;;21.89;100.00;101193.38;10625167;27;19930;-70
